Time;durP1;ratioP1;P1;durP2;ratioP2;P2;SDS_P1;SDS_P2;PMS_P1;PMS_P2;Temp;Humidity;BMP_temperature;BMP_pressure;BME280_temperature;BME280_humidity;BME280_pressure;Samples;Min_cycle;Max_cycle;Signal;HPM_P1;HPM_P2
2021/11/21 00:01:06;;;;;;;14.50;14.00;;;20.80;94.90;;;;;;5047787;28;20444;-48
2021/11/21 00:03:34;;;;;;;14.33;13.83;;;20.80;94.90;;;;;;5032616;28;20540;-48
2021/11/21 00:06:01;;;;;;;14.73;14.10;;;20.80;95.10;;;;;;5032549;28;20445;-48
2021/11/21 00:08:29;;;;;;;13.70;13.20;;;20.80;95.10;;;;;;5048641;28;20472;-50
2021/11/21 00:10:58;;;;;;;14.07;13.57;;;20.70;95.30;;;;;;5050690;28;20999;-48
2021/11/21 00:13:25;;;;;;;15.53;14.93;;;20.70;95.40;;;;;;5032345;28;20441;-49
2021/11/21 00:15:52;;;;;;;14.80;14.20;;;20.70;95.50;;;;;;5032253;28;20440;-48
2021/11/21 00:18:20;;;;;;;15.60;15.00;;;20.70;95.50;;;;;;5047195;28;20471;-48
2021/11/21 00:20:47;;;;;;;16.53;15.93;;;20.70;95.40;;;;;;5051308;28;20444;-49
2021/11/21 00:23:14;;;;;;;15.30;14.70;;;20.60;95.70;;;;;;5032021;28;20524;-51
2021/11/21 00:25:42;;;;;;;15.10;14.60;;;20.70;95.80;;;;;;5032059;28;20453;-50
2021/11/21 00:28:11;;;;;;;14.37;13.90;;;20.60;96.00;;;;;;5031839;28;21021;-56
2021/11/21 00:30:38;;;;;;;15.07;14.50;;;20.60;95.80;;;;;;5031709;28;20449;-49
2021/11/21 00:33:06;;;;;;;14.80;14.30;;;20.60;95.60;;;;;;5049710;28;20475;-48
2021/11/21 00:35:34;;;;;;;16.53;15.93;;;20.50;95.50;;;;;;5051564;28;20440;-47
2021/11/21 00:38:02;;;;;;;14.17;13.57;;;20.60;95.50;;;;;;5051650;28;20457;-49
2021/11/21 00:40:29;;;;;;;14.37;13.87;;;20.50;95.60;;;;;;5041087;28;20510;-47
2021/11/21 00:42:57;;;;;;;17.20;16.40;;;20.40;95.50;;;;;;5048316;28;20518;-48
2021/11/21 00:45:26;;;;;;;15.93;15.23;;;20.40;95.40;;;;;;5051574;28;20448;-48
2021/11/21 00:47:54;;;;;;;15.60;15.00;;;20.40;95.40;;;;;;5051221;28;20983;-48
2021/11/21 00:50:25;;;;;;;15.60;14.90;;;20.40;95.50;;;;;;5046447;28;20449;-48
2021/11/21 00:52:58;;;;;;;16.53;15.90;;;20.40;95.40;;;;;;5035651;28;20463;-51
2021/11/21 00:55:34;;;;;;;16.47;15.67;;;20.40;95.40;;;;;;5040324;28;20487;-48
2021/11/21 00:58:01;;;;;;;14.90;14.30;;;20.30;95.40;;;;;;5051360;28;20468;-48
2021/11/21 01:00:31;;;;;;;16.17;15.30;;;20.30;95.40;;;;;;5049443;28;20451;-50
2021/11/21 01:02:58;;;;;;;14.80;14.20;;;20.30;95.40;;;;;;5051292;28;20541;-53
2021/11/21 01:05:25;;;;;;;14.60;14.10;;;20.20;95.50;;;;;;5042166;28;20468;-51
2021/11/21 01:07:53;;;;;;;15.40;14.80;;;20.20;95.50;;;;;;5036319;28;20964;-50
2021/11/21 01:10:22;;;;;;;14.90;14.30;;;20.20;95.70;;;;;;5051083;28;20456;-48
2021/11/21 01:12:53;;;;;;;14.70;14.20;;;20.20;95.80;;;;;;5038663;28;20453;-49
2021/11/21 01:15:22;;;;;;;14.67;14.07;;;20.10;95.70;;;;;;5031373;28;20636;-49
2021/11/21 01:17:52;;;;;;;14.93;14.43;;;20.10;96.00;;;;;;5036168;28;20833;-49
2021/11/21 01:20:20;;;;;;;14.80;14.20;;;20.10;95.90;;;;;;5059419;28;20432;-47
2021/11/21 01:22:48;;;;;;;14.70;14.20;;;20.10;95.90;;;;;;5068719;28;20479;-47
2021/11/21 01:25:15;;;;;;;14.73;14.23;;;20.10;96.00;;;;;;5051056;28;21003;-48
2021/11/21 01:27:43;;;;;;;15.37;14.80;;;20.00;96.00;;;;;;5050833;28;20534;-48
2021/11/21 01:30:13;;;;;;;16.43;15.73;;;20.00;96.10;;;;;;5048232;28;20440;-47
2021/11/21 01:32:40;;;;;;;15.57;15.07;;;19.90;96.10;;;;;;5042554;28;20441;-50
2021/11/21 01:35:10;;;;;;;14.97;14.47;;;19.90;96.50;;;;;;5043192;28;20893;-48
2021/11/21 01:37:38;;;;;;;15.13;14.63;;;19.90;96.40;;;;;;5030961;28;20472;-47
2021/11/21 01:40:07;;;;;;;15.43;14.83;;;19.90;96.50;;;;;;5040530;28;20476;-50
2021/11/21 01:42:34;;;;;;;16.70;15.87;;;19.80;96.50;;;;;;5050868;28;20480;-47
2021/11/21 01:45:02;;;;;;;15.17;14.57;;;19.80;96.40;;;;;;5050915;28;20443;-47
2021/11/21 01:47:29;;;;;;;14.90;14.40;;;19.80;96.60;;;;;;5050845;28;20447;-48
2021/11/21 01:49:56;;;;;;;15.57;14.97;;;19.80;96.60;;;;;;5050619;28;20456;-49
2021/11/21 01:52:25;;;;;;;16.33;15.60;;;19.80;96.60;;;;;;5039838;28;20841;-50
2021/11/21 01:54:52;;;;;;;14.77;14.27;;;19.70;96.80;;;;;;5030892;28;20456;-49
2021/11/21 01:57:19;;;;;;;15.00;14.33;;;19.70;96.80;;;;;;5030787;28;20503;-48
2021/11/21 01:59:47;;;;;;;14.80;14.30;;;19.70;96.80;;;;;;5030597;28;20461;-48
2021/11/21 02:02:14;;;;;;;15.60;15.00;;;19.70;97.00;;;;;;5030725;28;20575;-50
2021/11/21 02:04:41;;;;;;;14.97;14.47;;;19.70;96.90;;;;;;5030837;28;20814;-47
2021/11/21 02:07:09;;;;;;;14.70;14.20;;;19.70;96.90;;;;;;5030729;28;20543;-51
2021/11/21 02:09:37;;;;;;;14.20;13.70;;;19.70;96.90;;;;;;5030598;28;20449;-48
2021/11/21 02:12:05;;;;;;;16.77;16.07;;;19.70;96.70;;;;;;5030805;28;20882;-50
2021/11/21 02:14:32;;;;;;;15.50;14.90;;;19.70;96.90;;;;;;5031101;28;20453;-51
2021/11/21 02:17:00;;;;;;;15.70;15.10;;;19.60;96.90;;;;;;5034295;28;20457;-48
2021/11/21 02:19:27;;;;;;;15.50;14.90;;;19.60;97.00;;;;;;5033984;28;20495;-48
2021/11/21 02:21:55;;;;;;;15.97;15.37;;;19.70;97.10;;;;;;5034064;28;20455;-48
2021/11/21 02:24:23;;;;;;;17.40;16.50;;;19.70;97.00;;;;;;5034157;28;20535;-47
2021/11/21 02:26:50;;;;;;;15.77;15.07;;;19.70;96.80;;;;;;5034170;28;20518;-48
2021/11/21 02:29:18;;;;;;;15.87;15.27;;;19.70;96.90;;;;;;5047502;28;20479;-49
2021/11/21 02:31:45;;;;;;;17.53;16.70;;;19.60;97.10;;;;;;5053900;28;20448;-47
2021/11/21 02:34:12;;;;;;;16.80;16.10;;;19.70;97.00;;;;;;5053970;28;20453;-47
2021/11/21 02:36:43;;;;;;;16.20;15.50;;;19.70;97.00;;;;;;5053741;28;20506;-49
2021/11/21 02:39:12;;;;;;;16.37;15.77;;;19.60;96.90;;;;;;5053733;28;20476;-47
2021/11/21 02:41:40;;;;;;;17.27;16.47;;;19.60;97.00;;;;;;5053664;28;20543;-49
2021/11/21 02:44:07;;;;;;;15.03;14.53;;;19.60;97.00;;;;;;5053631;28;20480;-49
2021/11/21 02:46:36;;;;;;;15.40;14.90;;;19.60;97.00;;;;;;5053809;28;20820;-50
2021/11/21 02:49:04;;;;;;;15.90;15.20;;;19.60;97.10;;;;;;5053285;28;20472;-48
2021/11/21 02:51:31;;;;;;;16.20;15.50;;;19.60;97.10;;;;;;5053495;28;20444;-48
2021/11/21 02:53:59;;;;;;;15.77;15.07;;;19.60;97.20;;;;;;5053449;28;20498;-47
2021/11/21 02:56:27;;;;;;;15.63;15.03;;;19.50;97.00;;;;;;5053461;28;20444;-48
2021/11/21 02:58:55;;;;;;;15.77;15.17;;;19.50;97.30;;;;;;5053127;28;20496;-48
2021/11/21 03:01:25;;;;;;;17.40;16.60;;;19.50;97.30;;;;;;5053387;28;20866;-50
2021/11/21 03:03:52;;;;;;;15.80;15.20;;;19.50;97.30;;;;;;5053352;28;21021;-50
2021/11/21 03:06:20;;;;;;;15.63;15.00;;;19.50;97.30;;;;;;5053349;28;20502;-50
2021/11/21 03:08:47;;;;;;;15.63;15.03;;;19.50;97.40;;;;;;5052932;28;20547;-47
2021/11/21 03:11:27;;;;;;;17.10;16.33;;;19.50;97.30;;;;;;5053178;28;20863;-50
2021/11/21 03:13:57;;;;;;;14.70;14.20;;;19.50;97.40;;;;;;5053177;28;20483;-48
2021/11/21 03:16:24;;;;;;;14.87;14.27;;;19.50;97.40;;;;;;5053120;28;21040;-47
2021/11/21 03:18:52;;;;;;;16.10;15.40;;;19.40;97.40;;;;;;5052953;28;20522;-48
2021/11/21 03:21:19;;;;;;;16.60;15.80;;;19.40;97.40;;;;;;5053069;28;20471;-48
2021/11/21 03:23:47;;;;;;;16.07;15.47;;;19.40;97.30;;;;;;5052885;28;21091;-47
2021/11/21 03:26:14;;;;;;;16.50;15.80;;;19.40;97.40;;;;;;5051974;28;20452;-47
2021/11/21 03:28:42;;;;;;;15.70;15.10;;;19.40;97.30;;;;;;5043401;28;20515;-48
2021/11/21 03:31:11;;;;;;;15.57;14.97;;;19.40;97.40;;;;;;5032927;28;20480;-47
2021/11/21 03:33:38;;;;;;;16.43;15.70;;;19.40;97.50;;;;;;5032896;28;20567;-48
2021/11/21 03:36:06;;;;;;;15.23;14.70;;;19.30;97.50;;;;;;5032786;28;20453;-47
2021/11/21 03:38:33;;;;;;;15.90;15.20;;;19.40;97.70;;;;;;5032616;28;20465;-52
2021/11/21 03:41:00;;;;;;;16.33;15.63;;;19.40;97.40;;;;;;5032595;28;20510;-47
2021/11/21 03:43:28;;;;;;;15.53;14.83;;;19.30;97.60;;;;;;5032715;28;20488;-50
2021/11/21 03:45:55;;;;;;;17.37;16.57;;;19.30;97.70;;;;;;5032750;28;20629;-47
2021/11/21 03:48:24;;;;;;;16.40;15.70;;;19.30;97.50;;;;;;5032419;28;21033;-47
2021/11/21 03:50:51;;;;;;;15.60;15.00;;;19.30;97.70;;;;;;5032501;28;20858;-48
2021/11/21 03:53:19;;;;;;;14.23;13.73;;;19.30;97.70;;;;;;5032639;28;20532;-47
2021/11/21 03:55:47;;;;;;;14.90;14.37;;;19.30;97.70;;;;;;5032417;28;20441;-47
2021/11/21 03:58:14;;;;;;;14.87;14.37;;;19.30;98.10;;;;;;5032284;28;20554;-48
2021/11/21 04:00:46;;;;;;;15.67;15.07;;;19.30;98.10;;;;;;5032081;28;20449;-49
2021/11/21 04:03:13;;;;;;;15.30;14.70;;;19.30;98.00;;;;;;5032263;28;20993;-47
2021/11/21 04:05:41;;;;;;;16.50;15.80;;;19.20;97.90;;;;;;5032055;28;20526;-48
2021/11/21 04:08:09;;;;;;;15.50;14.90;;;19.10;98.10;;;;;;5032191;28;20974;-47
2021/11/21 04:10:36;;;;;;;16.23;15.53;;;19.10;98.20;;;;;;5031971;28;21012;-50
2021/11/21 04:13:04;;;;;;;16.70;15.90;;;19.10;98.00;;;;;;5032033;28;20515;-47
2021/11/21 04:15:33;;;;;;;17.67;16.73;;;19.10;97.90;;;;;;5032066;28;20484;-49
2021/11/21 04:18:00;;;;;;;16.33;15.63;;;19.10;97.70;;;;;;5031974;28;20479;-48
2021/11/21 04:20:27;;;;;;;16.40;15.70;;;19.10;97.50;;;;;;5031950;28;20441;-49
2021/11/21 04:22:56;;;;;;;16.93;16.13;;;19.10;97.30;;;;;;5031790;28;20490;-48
2021/11/21 04:25:24;;;;;;;18.33;17.33;;;19.10;97.20;;;;;;5031893;28;20528;-47
2021/11/21 04:27:51;;;;;;;17.27;16.40;;;19.10;97.10;;;;;;5032190;28;20477;-49
2021/11/21 04:30:18;;;;;;;17.00;16.30;;;19.10;96.80;;;;;;5031828;28;20445;-48
2021/11/21 04:32:47;;;;;;;17.83;16.93;;;19.00;96.60;;;;;;5031933;28;20785;-50
2021/11/21 04:35:17;;;;;;;18.13;17.30;;;19.00;96.50;;;;;;5031928;28;20453;-51
2021/11/21 04:37:44;;;;;;;17.90;17.10;;;19.00;96.50;;;;;;5031441;28;20469;-48
2021/11/21 04:40:14;;;;;;;16.80;16.10;;;19.00;96.50;;;;;;5031735;28;20441;-48
2021/11/21 04:42:41;;;;;;;17.40;16.60;;;18.90;96.40;;;;;;5031715;28;20537;-50
2021/11/21 04:45:09;;;;;;;16.93;16.23;;;18.90;96.30;;;;;;5031802;28;20480;-48
2021/11/21 04:47:36;;;;;;;17.77;16.87;;;18.90;96.20;;;;;;5031678;28;20457;-48
2021/11/21 04:50:04;;;;;;;17.83;16.97;;;19.00;96.10;;;;;;5031433;28;20448;-48
2021/11/21 04:52:31;;;;;;;17.73;16.83;;;18.90;95.90;;;;;;5031593;28;20842;-48
2021/11/21 04:54:58;;;;;;;16.87;16.07;;;18.90;95.90;;;;;;5031490;28;20801;-48
2021/11/21 04:57:26;;;;;;;17.00;16.20;;;18.90;95.70;;;;;;5031504;28;20447;-50
2021/11/21 04:59:53;;;;;;;18.27;17.37;;;18.90;95.70;;;;;;5031489;28;20451;-51
2021/11/21 05:02:20;;;;;;;18.70;17.60;;;18.80;95.60;;;;;;5031657;28;20441;-51
2021/11/21 05:04:47;;;;;;;19.23;18.23;;;18.90;95.70;;;;;;5031237;28;21097;-53
2021/11/21 05:07:13;;;;;;;19.20;18.23;;;18.80;95.50;;;;;;5031319;28;20972;-49
2021/11/21 05:09:41;;;;;;;19.03;18.03;;;18.80;95.50;;;;;;5031259;28;20930;-49
2021/11/21 05:12:09;;;;;;;17.00;16.20;;;18.90;95.30;;;;;;5031546;28;20457;-48
2021/11/21 05:14:37;;;;;;;18.17;17.30;;;18.80;95.20;;;;;;5031316;28;20448;-48
2021/11/21 05:17:04;;;;;;;18.33;17.43;;;18.80;95.10;;;;;;5031225;28;20451;-49
2021/11/21 05:19:31;;;;;;;18.40;17.40;;;18.80;94.90;;;;;;5030987;28;20468;-48
2021/11/21 05:21:57;;;;;;;18.07;17.27;;;18.70;95.10;;;;;;5031226;28;20460;-50
2021/11/21 05:24:24;;;;;;;17.30;16.60;;;18.70;94.90;;;;;;5031199;28;20492;-48
2021/11/21 05:26:52;;;;;;;19.10;18.10;;;18.70;95.10;;;;;;5031239;28;20449;-49
2021/11/21 05:29:19;;;;;;;17.53;16.80;;;18.70;94.90;;;;;;5044890;28;20483;-48
2021/11/21 05:31:47;;;;;;;17.83;16.93;;;18.70;94.90;;;;;;5051177;28;20527;-49
2021/11/21 05:34:14;;;;;;;17.60;16.80;;;18.70;94.90;;;;;;5050940;28;20792;-49
2021/11/21 05:36:42;;;;;;;17.40;16.60;;;18.70;95.00;;;;;;5050998;28;20464;-48
2021/11/21 05:39:09;;;;;;;18.00;17.20;;;18.70;94.80;;;;;;5050753;28;20475;-49
2021/11/21 05:41:36;;;;;;;18.83;17.87;;;18.70;94.90;;;;;;5051014;28;20452;-53
2021/11/21 05:44:03;;;;;;;18.30;17.50;;;18.70;94.80;;;;;;5050806;28;20488;-52
2021/11/21 05:46:30;;;;;;;18.07;17.27;;;18.60;94.70;;;;;;5050902;28;20531;-51
2021/11/21 05:48:58;;;;;;;17.20;16.50;;;18.70;94.70;;;;;;5050545;28;20471;-52
2021/11/21 05:51:25;;;;;;;17.70;16.90;;;18.60;94.80;;;;;;5054400;28;20447;-49
2021/11/21 05:53:52;;;;;;;18.50;17.60;;;19.00;95.00;;;;;;5054723;28;20523;-48
2021/11/21 05:56:20;;;;;;;17.43;16.63;;;19.40;94.30;;;;;;5054666;28;20452;-49
2021/11/21 05:58:47;;;;;;;17.20;16.40;;;19.90;93.00;;;;;;5054416;28;20467;-48
2021/11/21 06:01:15;;;;;;;18.00;17.20;;;20.20;91.70;;;;;;5054557;28;20451;-48
2021/11/21 06:03:42;;;;;;;17.90;17.00;;;20.50;90.70;;;;;;5054412;28;20997;-48
2021/11/21 06:06:10;;;;;;;18.93;18.00;;;20.60;89.60;;;;;;5054635;28;20444;-48
2021/11/21 06:08:37;;;;;;;18.90;17.90;;;20.60;88.20;;;;;;5054291;28;20466;-51
2021/11/21 06:11:04;;;;;;;18.80;17.77;;;20.70;87.10;;;;;;5054435;28;20444;-48
2021/11/21 06:13:30;;;;;;;17.93;17.13;;;20.70;86.00;;;;;;5054330;28;20444;-48
2021/11/21 06:15:57;;;;;;;18.93;18.00;;;20.70;85.60;;;;;;5054296;28;20440;-48
2021/11/21 06:18:24;;;;;;;20.00;19.00;;;20.80;84.70;;;;;;5054197;28;20832;-48
2021/11/21 06:20:51;;;;;;;18.70;17.80;;;20.80;84.20;;;;;;5054012;28;20444;-49
2021/11/21 06:23:19;;;;;;;18.37;17.47;;;20.80;83.50;;;;;;5054090;28;20452;-48
2021/11/21 06:25:47;;;;;;;17.77;16.97;;;20.80;83.10;;;;;;5053987;28;20448;-50
2021/11/21 06:28:14;;;;;;;17.97;17.07;;;20.70;82.70;;;;;;5048530;28;20552;-53
2021/11/21 06:30:41;;;;;;;18.13;17.33;;;20.70;82.60;;;;;;5033920;28;20536;-50
2021/11/21 06:33:08;;;;;;;18.70;17.80;;;20.70;82.40;;;;;;5033857;28;20445;-50
2021/11/21 06:35:37;;;;;;;18.60;17.60;;;20.70;82.30;;;;;;5034024;28;20453;-48
2021/11/21 06:38:04;;;;;;;17.50;16.80;;;20.60;82.10;;;;;;5033751;28;20473;-48
2021/11/21 06:40:33;;;;;;;18.30;17.40;;;20.60;82.10;;;;;;5033853;28;20445;-50
2021/11/21 06:42:59;;;;;;;18.70;17.80;;;20.60;82.00;;;;;;5033844;28;20445;-48
2021/11/21 06:45:26;;;;;;;19.47;18.47;;;20.50;81.90;;;;;;5033721;28;20487;-49
2021/11/21 06:47:53;;;;;;;18.93;18.03;;;20.50;81.80;;;;;;5033740;28;20471;-50
2021/11/21 06:50:21;;;;;;;20.23;19.23;;;20.50;81.80;;;;;;5033652;28;20538;-49
2021/11/21 06:52:49;;;;;;;13.87;13.27;;;20.40;81.50;;;;;;5033746;28;20507;-49
2021/11/21 06:55:16;;;;;;;14.77;13.90;;;20.40;81.70;;;;;;5033526;28;20519;-48
2021/11/21 06:57:45;;;;;;;13.23;12.63;;;20.40;81.70;;;;;;5033495;28;20468;-48
2021/11/21 07:00:14;;;;;;;14.03;13.33;;;20.30;81.60;;;;;;5033164;28;20445;-49
2021/11/21 07:02:41;;;;;;;13.03;12.43;;;20.20;81.70;;;;;;5033639;28;20445;-53
2021/11/21 07:05:08;;;;;;;14.67;13.97;;;20.20;81.80;;;;;;5033403;28;20485;-49
2021/11/21 07:07:36;;;;;;;14.27;13.57;;;20.20;81.60;;;;;;5033446;28;20469;-48
2021/11/21 07:10:03;;;;;;;13.57;12.87;;;20.10;81.70;;;;;;5033157;28;20543;-49
2021/11/21 07:12:31;;;;;;;12.60;12.00;;;20.10;81.80;;;;;;5033493;28;20445;-48
2021/11/21 07:15:00;;;;;;;14.23;13.53;;;20.00;81.70;;;;;;5033232;28;20869;-52
2021/11/21 07:17:26;;;;;;;12.50;12.00;;;20.00;81.90;;;;;;5033066;28;20472;-50
2021/11/21 07:19:53;;;;;;;13.87;13.00;;;19.90;82.00;;;;;;5033226;28;20449;-50
2021/11/21 07:22:20;;;;;;;12.50;11.90;;;19.90;82.20;;;;;;5033114;28;20445;-48
2021/11/21 07:24:47;;;;;;;13.20;12.60;;;19.90;82.40;;;;;;5033161;28;20990;-52
2021/11/21 07:27:15;;;;;;;12.70;12.10;;;19.80;82.20;;;;;;5032945;28;20453;-48
2021/11/21 07:29:42;;;;;;;13.00;12.40;;;19.90;82.60;;;;;;5050267;28;20539;-49
2021/11/21 07:32:11;;;;;;;11.77;11.27;;;19.80;83.00;;;;;;5053124;28;20441;-53
2021/11/21 07:34:37;;;;;;;11.97;11.47;;;19.80;83.30;;;;;;5053300;28;20458;-50
2021/11/21 07:37:04;;;;;;;12.60;12.00;;;19.80;84.40;;;;;;5052959;28;20451;-51
2021/11/21 07:39:31;;;;;;;13.07;12.57;;;19.70;84.90;;;;;;5052854;28;20828;-53
2021/11/21 07:41:58;;;;;;;12.87;12.17;;;19.70;85.40;;;;;;5052929;28;20444;-50
2021/11/21 07:44:25;;;;;;;12.53;12.03;;;19.70;85.70;;;;;;5052729;28;20476;-51
2021/11/21 07:46:52;;;;;;;12.60;12.10;;;19.70;86.00;;;;;;5052874;28;20799;-49
2021/11/21 07:49:20;;;;;;;11.93;11.43;;;19.70;86.40;;;;;;5052859;28;20467;-51
2021/11/21 07:51:47;;;;;;;11.90;11.40;;;19.60;86.60;;;;;;5052859;28;20444;-50
2021/11/21 07:54:14;;;;;;;12.47;11.97;;;19.60;87.00;;;;;;5052566;28;20862;-50
2021/11/21 07:56:41;;;;;;;12.10;11.60;;;19.50;87.10;;;;;;5052537;28;20535;-52
2021/11/21 07:59:09;;;;;;;12.33;11.80;;;19.50;87.80;;;;;;5052277;28;20470;-52
2021/11/21 08:01:36;;;;;;;13.60;13.00;;;19.50;87.90;;;;;;5052392;28;20463;-50
2021/11/21 08:04:03;;;;;;;12.20;11.63;;;19.40;88.00;;;;;;5052078;28;20480;-51
2021/11/21 08:06:31;;;;;;;12.87;12.27;;;19.40;88.10;;;;;;5052376;28;20452;-49
2021/11/21 08:08:57;;;;;;;11.37;10.90;;;19.40;88.90;;;;;;5052279;28;20460;-49
2021/11/21 08:11:24;;;;;;;12.10;11.50;;;19.40;89.20;;;;;;5052377;28;20452;-49
2021/11/21 08:13:51;;;;;;;11.70;11.20;;;19.30;89.80;;;;;;5051812;28;20451;-50
2021/11/21 08:16:18;;;;;;;11.23;10.73;;;19.30;90.00;;;;;;5052219;28;20454;-50
2021/11/21 08:18:45;;;;;;;13.37;12.77;;;19.30;90.30;;;;;;5052019;28;20470;-50
2021/11/21 08:21:11;;;;;;;12.00;11.50;;;19.20;90.40;;;;;;5052366;28;20479;-50
2021/11/21 08:23:39;;;;;;;12.30;11.60;;;19.30;90.60;;;;;;5052153;28;20466;-53
2021/11/21 08:26:06;;;;;;;12.53;12.03;;;19.30;90.70;;;;;;5051917;28;20480;-54
2021/11/21 08:28:33;;;;;;;12.20;11.70;;;19.20;90.70;;;;;;5043603;28;20477;-54
2021/11/21 08:31:00;;;;;;;13.07;12.57;;;19.20;90.60;;;;;;5031821;28;20463;-51
2021/11/21 08:33:27;;;;;;;12.50;11.90;;;19.10;90.60;;;;;;5031877;28;20453;-51
2021/11/21 08:35:54;;;;;;;11.67;11.20;;;19.10;90.60;;;;;;5031836;28;20448;-50
2021/11/21 08:38:20;;;;;;;12.30;11.70;;;19.10;90.50;;;;;;5031671;28;20491;-50
2021/11/21 08:40:48;;;;;;;12.40;11.90;;;19.10;90.40;;;;;;5031579;28;20441;-50
2021/11/21 08:43:15;;;;;;;12.03;11.53;;;19.00;90.50;;;;;;5031688;28;20884;-49
2021/11/21 08:45:42;;;;;;;12.27;11.67;;;19.00;90.70;;;;;;5031482;28;20487;-50
2021/11/21 08:48:09;;;;;;;11.87;11.37;;;19.00;90.70;;;;;;5031521;28;20503;-49
2021/11/21 08:50:36;;;;;;;12.40;11.90;;;19.00;90.80;;;;;;5031290;28;20456;-49
2021/11/21 08:53:03;;;;;;;11.77;11.17;;;18.90;90.90;;;;;;5031560;28;20452;-51
2021/11/21 08:55:30;;;;;;;12.77;12.17;;;19.00;91.10;;;;;;5031493;28;20445;-50
2021/11/21 08:57:59;;;;;;;12.90;12.10;;;19.00;91.00;;;;;;5031256;28;20562;-50
2021/11/21 09:00:25;;;;;;;12.80;12.30;;;18.90;91.00;;;;;;5031344;28;20449;-49
2021/11/21 09:02:52;;;;;;;12.60;12.10;;;18.90;91.10;;;;;;5051136;28;20814;-52
2021/11/21 09:05:19;;;;;;;12.50;12.00;;;18.90;91.20;;;;;;5068463;28;20479;-49
2021/11/21 09:07:46;;;;;;;12.67;12.17;;;18.90;91.20;;;;;;5040777;28;20473;-49
2021/11/21 09:10:18;;;;;;;12.30;11.70;;;18.80;91.40;;;;;;5042514;28;20445;-49
2021/11/21 09:12:45;;;;;;;12.00;11.60;;;18.90;91.80;;;;;;5031672;28;20457;-49
2021/11/21 09:15:16;;;;;;;12.70;12.20;;;18.90;92.00;;;;;;5031950;28;20441;-50
2021/11/21 09:17:43;;;;;;;12.27;11.67;;;18.90;92.50;;;;;;5031483;28;20511;-49
2021/11/21 09:20:12;;;;;;;12.60;12.10;;;18.80;92.80;;;;;;5032661;28;20437;-50
2021/11/21 09:22:39;;;;;;;12.10;11.40;;;18.80;93.20;;;;;;5051719;28;20452;-49
2021/11/21 09:25:07;;;;;;;11.77;11.27;;;18.90;93.40;;;;;;5053054;28;20842;-50
2021/11/21 09:27:35;;;;;;;11.87;11.47;;;18.90;93.40;;;;;;5055368;28;20471;-51
2021/11/21 09:30:01;;;;;;;13.53;12.73;;;18.90;93.50;;;;;;5054784;28;20823;-49
2021/11/21 09:32:30;;;;;;;11.90;11.50;;;18.90;93.60;;;;;;5037181;28;20562;-51
2021/11/21 09:34:56;;;;;;;12.63;12.07;;;18.90;94.20;;;;;;5039553;28;20445;-50
2021/11/21 09:37:23;;;;;;;12.50;12.00;;;18.90;93.90;;;;;;5035364;28;20444;-49
2021/11/21 09:39:50;;;;;;;14.30;13.50;;;18.80;93.70;;;;;;5035619;28;20440;-51
2021/11/21 09:42:18;;;;;;;18.07;17.10;;;18.90;94.20;;;;;;5035739;28;20444;-49
2021/11/21 09:44:45;;;;;;;19.53;18.47;;;18.90;93.90;;;;;;5035075;28;20490;-50
2021/11/21 09:47:13;;;;;;;25.23;23.63;;;18.90;93.70;;;;;;5035403;28;20463;-49
2021/11/21 09:49:42;;;;;;;22.60;21.20;;;19.00;93.90;;;;;;5034959;28;20475;-52
2021/11/21 09:52:08;;;;;;;25.50;23.97;;;19.00;93.90;;;;;;5054789;28;20448;-53
2021/11/21 09:54:35;;;;;;;26.30;24.50;;;19.00;94.40;;;;;;5055031;28;20467;-50
2021/11/21 09:57:02;;;;;;;30.50;28.70;;;19.00;94.40;;;;;;5051085;28;20441;-49
2021/11/21 09:59:48;;;;;;;27.40;25.77;;;19.00;94.90;;;;;;5034853;28;20465;-51
2021/11/21 10:02:18;;;;;;;32.60;30.60;;;19.00;95.20;;;;;;5035171;28;20781;-52
2021/11/21 10:04:47;;;;;;;28.60;26.90;;;19.00;95.40;;;;;;5034886;28;20476;-50
2021/11/21 10:07:22;;;;;;;31.60;29.60;;;18.90;95.50;;;;;;5039936;28;20537;-49
2021/11/21 10:09:49;;;;;;;25.43;23.83;;;18.90;95.70;;;;;;5054480;28;20457;-52
2021/11/21 10:12:16;;;;;;;26.00;24.50;;;19.00;96.20;;;;;;5054780;28;20448;-52
2021/11/21 10:14:56;;;;;;;24.27;22.80;;;19.00;95.70;;;;;;5054673;28;20439;-53
2021/11/21 10:17:25;;;;;;;24.30;22.80;;;19.00;95.50;;;;;;5048498;28;20463;-49
2021/11/21 10:20:16;;;;;;;23.80;22.40;;;19.00;96.00;;;;;;5034597;28;20452;-49
2021/11/21 10:23:02;;;;;;;21.80;20.60;;;19.00;96.00;;;;;;5034588;28;20555;-49
2021/11/21 10:25:50;;;;;;;20.37;19.07;;;19.10;95.90;;;;;;5034598;28;20485;-53
2021/11/21 10:28:24;;;;;;;19.90;18.77;;;19.10;95.90;;;;;;5070182;22;20487;-53
2021/11/21 10:31:10;;;;;;;19.53;18.43;;;19.10;95.50;;;;;;5053823;28;20959;-49
2021/11/21 10:33:41;;;;;;;17.93;16.90;;;19.20;95.40;;;;;;5054164;28;20451;-56
2021/11/21 10:36:12;;;;;;;17.77;16.93;;;19.20;95.20;;;;;;5053640;28;20444;-51
2021/11/21 10:38:43;;;;;;;17.40;16.50;;;19.20;95.00;;;;;;5044986;28;20473;-49
2021/11/21 10:41:14;;;;;;;16.20;15.43;;;19.10;94.90;;;;;;5034043;28;20445;-49
2021/11/21 10:43:47;;;;;;;16.10;15.30;;;19.10;95.20;;;;;;5034070;28;20536;-52
2021/11/21 10:46:35;;;;;;;16.10;15.30;;;19.10;95.20;;;;;;5033993;28;20477;-52
2021/11/21 10:49:22;;;;;;;16.50;15.70;;;19.10;95.20;;;;;;5033461;28;20501;-51
2021/11/21 10:52:03;;;;;;;14.57;13.97;;;19.10;95.30;;;;;;5033664;28;20441;-50
2021/11/21 10:54:32;;;;;;;13.83;13.23;;;19.10;95.20;;;;;;5033798;28;20440;-52
2021/11/21 10:57:03;;;;;;;14.83;14.13;;;19.10;95.10;;;;;;5033473;28;20449;-50
2021/11/21 10:59:41;;;;;;;13.87;13.20;;;19.10;95.10;;;;;;5033539;28;20475;-54
2021/11/21 11:02:11;;;;;;;13.93;13.23;;;19.10;95.10;;;;;;5033787;28;20528;-53
2021/11/21 11:04:39;;;;;;;12.97;12.27;;;19.10;95.30;;;;;;5033537;28;20447;-49
2021/11/21 11:07:17;;;;;;;13.40;12.80;;;19.10;95.50;;;;;;5033296;28;20441;-53
2021/11/21 11:09:45;;;;;;;12.60;11.90;;;19.00;95.70;;;;;;5033264;28;20527;-50
2021/11/21 11:12:12;;;;;;;11.90;11.30;;;19.00;95.90;;;;;;5033517;28;20448;-48
2021/11/21 11:14:39;;;;;;;12.17;11.47;;;18.90;96.00;;;;;;5033290;28;20445;-52
2021/11/21 11:17:06;;;;;;;12.13;11.53;;;18.90;96.30;;;;;;5033174;28;20463;-51
2021/11/21 11:19:34;;;;;;;11.73;11.23;;;18.90;96.30;;;;;;5033042;28;21053;-50
2021/11/21 11:22:01;;;;;;;12.00;11.50;;;18.90;96.60;;;;;;5033244;28;21076;-50
2021/11/21 11:24:29;;;;;;;10.70;10.30;;;18.90;96.80;;;;;;5033260;28;20475;-49
2021/11/21 11:27:07;;;;;;;11.07;10.47;;;18.80;96.70;;;;;;5032826;28;20575;-48
2021/11/21 11:29:37;;;;;;;11.17;10.77;;;18.80;96.60;;;;;;5032554;28;20481;-53
2021/11/21 11:32:29;;;;;;;11.20;10.30;;;18.80;96.50;;;;;;5033202;28;20448;-49
2021/11/21 11:34:57;;;;;;;10.50;10.00;;;18.80;96.50;;;;;;5033157;28;20527;-52
2021/11/21 11:37:41;;;;;;;11.47;11.07;;;18.80;96.30;;;;;;5032493;28;20452;-52
2021/11/21 11:40:52;;;;;;;11.77;11.37;;;18.80;96.30;;;;;;5032806;28;20453;-51
2021/11/21 11:43:38;;;;;;;12.90;12.40;;;18.80;96.30;;;;;;5032910;28;20499;-52
2021/11/21 11:46:09;;;;;;;11.10;10.70;;;18.80;96.20;;;;;;5032868;28;20491;-52
2021/11/21 11:48:39;;;;;;;10.50;10.10;;;18.80;96.10;;;;;;5031405;28;20568;-50
2021/11/21 11:51:09;;;;;;;9.63;9.23;;;18.90;96.00;;;;;;5032737;28;20451;-53
2021/11/21 11:53:39;;;;;;;10.30;9.80;;;18.90;95.70;;;;;;5032999;28;20548;-52
2021/11/21 11:56:16;;;;;;;10.90;10.50;;;18.90;95.50;;;;;;5032552;28;20445;-57
2021/11/21 11:58:50;;;;;;;11.60;11.07;;;18.90;95.30;;;;;;5031555;28;20549;-57
2021/11/21 12:01:52;;;;;;;9.93;9.63;;;19.00;95.20;;;;;;5030948;28;20528;-54
2021/11/21 12:04:47;;;;;;;10.10;9.70;;;19.00;95.20;;;;;;5032530;28;20456;-59
2021/11/21 12:07:36;;;;;;;10.03;9.63;;;19.00;94.90;;;;;;5023539;28;21001;-56
2021/11/21 12:10:14;;;;;;;10.73;10.23;;;19.00;94.70;;;;;;5032239;28;20452;-58
2021/11/21 12:13:07;;;;;;;10.73;10.23;;;19.00;94.50;;;;;;5032022;28;20453;-54
2021/11/21 12:16:00;;;;;;;10.30;9.90;;;19.00;94.40;;;;;;5032330;28;20536;-56
2021/11/21 12:18:58;;;;;;;10.03;9.73;;;19.10;94.80;;;;;;5032167;28;20468;-54
2021/11/21 12:21:37;;;;;;;10.40;10.00;;;19.10;94.80;;;;;;5032117;28;20444;-53
2021/11/21 12:24:06;;;;;;;9.30;9.00;;;19.10;94.60;;;;;;5031855;28;20444;-52
2021/11/21 12:26:38;;;;;;;8.30;8.00;;;19.10;94.80;;;;;;5031127;28;20785;-53
2021/11/21 12:29:10;;;;;;;10.17;9.77;;;19.20;94.40;;;;;;5031713;28;20266;-52
2021/11/21 12:31:40;;;;;;;9.90;9.40;;;19.20;94.20;;;;;;5031786;28;20503;-55
2021/11/21 12:34:43;;;;;;;9.40;9.10;;;19.20;94.30;;;;;;5032025;28;20445;-52
2021/11/21 12:37:16;;;;;;;9.27;8.93;;;19.90;94.30;;;;;;4970998;28;20462;-56
2021/11/21 12:39:45;;;;;;;10.10;9.70;;;20.60;92.50;;;;;;4970455;28;20488;-57